aviador You're here:

KGAG Decoded Metar

GAGE in OK, USA
Report Time2017-06-24 23:53:00
UTC Time2017-06-25 00:05:05
Flight Rules vfr VFR
Wind160° at 05 kt
W.Decomp.*RWY 17: 4.8 kt HW 1.5 kt LCW
W.Rank160° ranks 4
Current wind is below 160° avg. (11.8)
Visibility9999 m
Phenomena:N/A
Clouds:Few 075 Hf
Expected CloudBase > 7,200 ft AGL from Temp-Dew spread
CeilingNone
Temp28°C (ISA +17)
Dew Point10°C (32% RH)
Heat Index27.2°C
AAT26.2°C
QNH1022 hPa
Density Alt4,049 ft
Elevation2,192 ft
Report Wrong Elevation
Raw Report
KGAG 242353Z AUTO 16005KT 10SM FEW075 28/10 A3017 RMK AO2 SLP191
T02830100 10294 20261 56008=

Extra information for KGAG:More info

Metar Taf Metar & Taf Last 4 Metars F.Rules Stats Wind Profile Meteogram Temp Stats Airport Information Weather charts Add Link Nearby VenuesMetar ALERT Operation Metar Decoded Social comments

AIRNAV info for KGAG